createdAt,value
2016-10-21T00:00:18.697Z,99.99
2016-10-21T00:01:18.702Z,99.99
2016-10-21T00:02:18.661Z,99.99
2016-10-21T00:03:18.688Z,99.99
2016-10-21T00:04:18.385Z,99.99
2016-10-21T00:05:18.759Z,99.99
2016-10-21T00:06:18.729Z,99.99
2016-10-21T00:07:18.732Z,99.99
2016-10-21T00:08:18.757Z,99.99
2016-10-21T00:09:18.758Z,99.99
2016-10-21T00:10:18.778Z,99.99
2016-10-21T00:11:18.786Z,99.99
2016-10-21T00:12:18.942Z,99.99
2016-10-21T00:13:18.831Z,99.99
2016-10-21T00:14:18.948Z,99.99
2016-10-21T00:15:18.849Z,99.99
2016-10-21T00:16:18.943Z,99.99
2016-10-21T00:17:18.872Z,99.99
2016-10-21T00:18:18.910Z,99.99
2016-10-21T00:19:18.912Z,99.99
2016-10-21T00:20:18.917Z,99.99
2016-10-21T00:21:18.927Z,99.99
2016-10-21T00:22:18.948Z,99.99
2016-10-21T00:23:18.959Z,99.99
2016-10-21T00:24:18.977Z,99.99
2016-10-21T00:25:18.670Z,99.99
2016-10-21T00:26:19.009Z,99.99
2016-10-21T00:27:19.032Z,99.99
2016-10-21T00:28:19.041Z,99.99
2016-10-21T00:29:19.060Z,99.99
2016-10-21T00:30:19.124Z,99.99
2016-10-21T00:31:19.110Z,99.99
2016-10-21T00:32:19.086Z,99.99
2016-10-21T00:33:19.118Z,99.99
2016-10-21T00:34:19.126Z,99.99
2016-10-21T00:35:19.139Z,99.99
2016-10-21T00:36:19.150Z,99.99
2016-10-21T00:37:19.171Z,99.99
2016-10-21T00:38:19.179Z,99.99
2016-10-21T00:39:19.196Z,99.99
2016-10-21T00:40:19.211Z,99.99
2016-10-21T00:41:19.226Z,99.99
2016-10-21T00:42:19.238Z,99.99
2016-10-21T00:43:19.256Z,99.99
2016-10-21T00:44:18.961Z,99.99
2016-10-21T00:45:18.983Z,99.99
2016-10-21T00:46:19.312Z,99.99
2016-10-21T00:47:19.310Z,99.99
2016-10-21T00:48:19.016Z,99.99
2016-10-21T00:49:19.030Z,99.99
2016-10-21T00:50:19.358Z,99.99
2016-10-21T00:51:19.378Z,99.99
2016-10-21T00:52:19.082Z,99.99
2016-10-21T00:53:19.398Z,99.99
2016-10-21T00:54:19.419Z,99.99
2016-10-21T00:55:19.429Z,99.99
2016-10-21T00:56:19.450Z,99.99
2016-10-21T00:57:19.456Z,99.99
2016-10-21T00:58:19.479Z,99.82
2016-10-21T00:59:19.499Z,99.99
2016-10-21T01:00:19.189Z,99.99
2016-10-21T01:01:19.521Z,99.99
2016-10-21T01:02:19.539Z,99.99
2016-10-21T01:03:19.235Z,99.99
2016-10-21T01:04:19.571Z,99.91
2016-10-21T01:05:19.576Z,99.91
2016-10-21T01:06:19.608Z,99.99
2016-10-21T01:07:19.610Z,99.72
2016-10-21T01:08:19.632Z,99.99
2016-10-21T01:09:19.331Z,99.99
2016-10-21T01:10:19.661Z,99.53
2016-10-21T01:11:19.669Z,99.82
2016-10-21T01:12:19.687Z,99.82
2016-10-21T01:13:19.389Z,99.72
2016-10-21T01:14:19.395Z,99.91
2016-10-21T01:15:19.421Z,99.72
2016-10-21T01:16:19.738Z,99.63
2016-10-21T01:17:19.771Z,99.99
2016-10-21T01:18:19.778Z,99.99
2016-10-21T01:19:19.783Z,99.99
2016-10-21T01:20:19.804Z,99.99
2016-10-21T01:21:19.817Z,99.72
2016-10-21T01:22:19.839Z,99.82
2016-10-21T01:23:19.552Z,99.82
2016-10-21T01:24:19.871Z,99.72
2016-10-21T01:25:19.888Z,99.99
2016-10-21T01:26:19.983Z,99.91
2016-10-21T01:27:19.919Z,99.99
2016-10-21T01:28:20.032Z,99.99
2016-10-21T01:29:19.945Z,99.99
2016-10-21T01:30:19.960Z,99.82
2016-10-21T01:31:19.969Z,99.91
2016-10-21T01:32:19.990Z,99.99
2016-10-21T01:33:19.698Z,99.99
2016-10-21T01:34:20.020Z,99.99
2016-10-21T01:35:20.031Z,99.99
2016-10-21T01:36:19.734Z,99.99
2016-10-21T01:37:20.069Z,99.99
2016-10-21T01:38:20.079Z,99.99
2016-10-21T01:39:20.217Z,99.99
2016-10-21T01:40:19.797Z,99.99
2016-10-21T01:41:20.323Z,99.99
2016-10-21T01:42:19.826Z,99.99
2016-10-21T01:43:20.203Z,99.99
2016-10-21T01:44:20.162Z,99.99
2016-10-21T01:45:20.184Z,99.99
2016-10-21T01:46:20.199Z,99.99
2016-10-21T01:47:20.254Z,99.99
2016-10-21T01:48:20.230Z,99.99
2016-10-21T01:49:20.253Z,99.96
2016-10-21T01:50:20.271Z,99.99
2016-10-21T01:51:20.297Z,99.99
2016-10-21T01:52:20.292Z,99.99
2016-10-21T01:53:20.309Z,99.99
2016-10-21T01:54:20.017Z,99.99
2016-10-21T01:55:20.348Z,99.82
2016-10-21T01:56:20.361Z,99.72
2016-10-21T01:57:20.370Z,99.82
2016-10-21T01:58:20.382Z,99.99
2016-10-21T01:59:20.460Z,99.99
2016-10-21T02:00:20.413Z,99.91
2016-10-21T02:01:20.418Z,99.72
2016-10-21T02:02:20.435Z,99.72
2016-10-21T02:03:20.457Z,99.99
2016-10-21T02:04:20.481Z,99.99
2016-10-21T02:05:20.481Z,99.91
2016-10-21T02:06:20.504Z,99.99
2016-10-21T02:07:20.516Z,99.91
2016-10-21T02:08:20.693Z,99.99
2016-10-21T02:09:20.564Z,99.99
2016-10-21T02:10:20.650Z,99.99
2016-10-21T02:11:20.633Z,99.99
2016-10-21T02:12:20.607Z,99.91
2016-10-21T02:13:20.611Z,99.99
2016-10-21T02:14:20.630Z,99.91
2016-10-21T02:15:20.678Z,99.91
2016-10-21T02:16:20.654Z,99.91
2016-10-21T02:17:20.659Z,99.72
2016-10-21T02:18:20.686Z,99.91
2016-10-21T02:19:20.702Z,99.82
2016-10-21T02:20:20.720Z,99.72
2016-10-21T02:21:20.745Z,99.91
2016-10-21T02:22:20.448Z,99.82
2016-10-21T02:23:20.834Z,99.99
2016-10-21T02:24:20.785Z,99.99
2016-10-21T02:25:20.857Z,99.91
2016-10-21T02:26:20.809Z,99.99
2016-10-21T02:27:20.829Z,99.99
2016-10-21T02:28:20.843Z,99.99
2016-10-21T02:29:20.848Z,99.99
2016-10-21T02:30:20.867Z,99.99
2016-10-21T02:31:20.882Z,99.99
2016-10-21T02:32:20.901Z,99.99
2016-10-21T02:33:20.913Z,99.99
2016-10-21T02:34:20.941Z,99.72
2016-10-21T02:35:20.641Z,99.99
2016-10-21T02:36:20.961Z,99.91
2016-10-21T02:37:20.972Z,99.82
2016-10-21T02:38:20.739Z,99.68
2016-10-21T02:39:21.011Z,99.99
2016-10-21T02:40:21.028Z,99.99
2016-10-21T02:41:21.041Z,99.91
2016-10-21T02:42:21.049Z,99.96
2016-10-21T02:43:21.086Z,99.77
2016-10-21T02:44:21.091Z,99.99
2016-10-21T02:45:21.093Z,99.68
2016-10-21T02:46:21.119Z,99.68
2016-10-21T02:47:21.132Z,99.87
2016-10-21T02:48:21.147Z,99.96
2016-10-21T02:49:21.158Z,99.68
2016-10-21T02:50:21.169Z,99.87
2016-10-21T02:51:21.190Z,99.68
2016-10-21T02:52:21.217Z,99.96
2016-10-21T02:53:21.254Z,99.96
2016-10-21T02:54:21.245Z,99.77
2016-10-21T02:55:21.265Z,99.87
2016-10-21T02:56:21.273Z,99.87
2016-10-21T02:57:21.289Z,99.68
2016-10-21T02:58:20.988Z,99.99
2016-10-21T02:59:21.320Z,99.99
2016-10-21T03:00:21.341Z,99.77
2016-10-21T03:01:21.413Z,99.68
2016-10-21T03:02:21.369Z,99.99
2016-10-21T03:03:21.385Z,99.77
2016-10-21T03:04:21.394Z,99.58
2016-10-21T03:05:21.419Z,99.58
2016-10-21T03:06:21.430Z,99.96
2016-10-21T03:07:21.440Z,99.58
2016-10-21T03:08:21.457Z,99.96
2016-10-21T03:09:21.481Z,99.49
2016-10-21T03:10:21.490Z,99.82
2016-10-21T03:11:21.501Z,99.54
2016-10-21T03:12:21.528Z,99.73
2016-10-21T03:13:21.537Z,99.35
2016-10-21T03:14:21.553Z,99.73
2016-10-21T03:15:21.571Z,99.82
2016-10-21T03:16:21.638Z,99.35
2016-10-21T03:17:21.597Z,99.44
2016-10-21T03:18:21.613Z,99.35
2016-10-21T03:19:21.623Z,99.35
2016-10-21T03:20:21.649Z,99.54
2016-10-21T03:21:21.669Z,99.54
2016-10-21T03:22:21.675Z,99.35
2016-10-21T03:23:21.696Z,99.26
2016-10-21T03:24:21.390Z,99.82
2016-10-21T03:25:21.417Z,99.73
2016-10-21T03:26:21.750Z,99.73
2016-10-21T03:27:21.770Z,99.16
2016-10-21T03:28:21.768Z,99.44
2016-10-21T03:29:21.792Z,99.54
2016-10-21T03:30:21.810Z,99.63
2016-10-21T03:31:21.829Z,99.73
2016-10-21T03:32:21.848Z,99.63
2016-10-21T03:33:21.867Z,99.87
2016-10-21T03:34:21.875Z,99.3
2016-10-21T03:35:21.898Z,99.21
2016-10-21T03:36:21.597Z,99.11
2016-10-21T03:37:21.914Z,98.83
2016-10-21T03:38:21.627Z,99.77
2016-10-21T03:39:21.954Z,99.3
2016-10-21T03:40:21.968Z,98.83
2016-10-21T03:41:21.678Z,99.02
2016-10-21T03:42:22.005Z,99.3
2016-10-21T03:43:22.016Z,99.02
2016-10-21T03:44:22.037Z,99.3
2016-10-21T03:45:22.045Z,99.11
2016-10-21T03:46:21.777Z,99.02
2016-10-21T03:47:22.077Z,98.83
2016-10-21T03:48:22.174Z,98.83
2016-10-21T03:49:21.810Z,99.02
2016-10-21T03:50:22.144Z,99.77
2016-10-21T03:51:21.831Z,99.87
2016-10-21T03:52:22.168Z,99.87
2016-10-21T03:53:22.187Z,99.87
2016-10-21T03:54:22.199Z,99.58
2016-10-21T03:55:22.219Z,99.68
2016-10-21T03:56:22.236Z,99.68
2016-10-21T03:57:22.248Z,99.4
2016-10-21T03:58:22.261Z,99.77
2016-10-21T03:59:22.277Z,99.87
2016-10-21T04:00:21.988Z,99.77
2016-10-21T04:01:21.999Z,99.68
2016-10-21T04:02:22.360Z,99.87
2016-10-21T04:03:22.039Z,99.87
2016-10-21T04:04:22.393Z,99.68
2016-10-21T04:05:22.474Z,99.87
2016-10-21T04:06:22.409Z,99.68
2016-10-21T04:07:22.407Z,99.68
2016-10-21T04:08:22.427Z,99.68
2016-10-21T04:09:22.439Z,99.77
2016-10-21T04:10:22.462Z,99.87
2016-10-21T04:11:22.490Z,99.68
2016-10-21T04:12:22.183Z,99.68
2016-10-21T04:13:22.640Z,99.77
2016-10-21T04:14:22.530Z,99.77
2016-10-21T04:15:22.639Z,99.87
2016-10-21T04:16:22.667Z,99.77
2016-10-21T04:17:22.285Z,99.87
2016-10-21T04:18:22.294Z,99.77
2016-10-21T04:19:22.611Z,99.87
2016-10-21T04:20:22.694Z,99.58
2016-10-21T04:21:22.640Z,99.49
2016-10-21T04:22:22.667Z,99.99
2016-10-21T04:23:22.668Z,99.99
2016-10-21T04:24:22.539Z,99.99
2016-10-21T04:25:22.707Z,99.99
2016-10-21T04:26:22.856Z,99.99
2016-10-21T04:27:22.738Z,99.99
2016-10-21T04:28:22.857Z,99.99
2016-10-21T04:29:22.801Z,99.99
2016-10-21T04:30:22.518Z,99.99
2016-10-21T04:31:22.812Z,99.99
2016-10-21T04:32:22.828Z,99.99
2016-10-21T04:33:22.841Z,99.87
2016-10-21T04:34:22.859Z,99.87
2016-10-21T04:35:22.869Z,99.87
2016-10-21T04:36:22.886Z,99.77
2016-10-21T04:37:22.909Z,99.99
2016-10-21T04:38:22.915Z,99.99
2016-10-21T04:39:22.627Z,99.99
2016-10-21T04:40:22.649Z,99.99
2016-10-21T04:41:22.719Z,99.99
2016-10-21T04:42:22.980Z,99.99
2016-10-21T04:43:23.016Z,99.99
2016-10-21T04:44:22.718Z,99.92
2016-10-21T04:45:23.100Z,99.99
2016-10-21T04:46:23.058Z,99.92
2016-10-21T04:47:23.064Z,99.99
2016-10-21T04:48:22.776Z,99.83
2016-10-21T04:49:23.111Z,99.99
2016-10-21T04:50:23.125Z,99.99
2016-10-21T04:51:23.157Z,99.99
2016-10-21T04:52:22.860Z,99.99
2016-10-21T04:53:22.857Z,99.99
2016-10-21T04:54:23.207Z,99.99
2016-10-21T04:55:23.205Z,99.92
2016-10-21T04:56:23.235Z,99.99
2016-10-21T04:57:23.240Z,99.92
2016-10-21T04:58:22.965Z,99.99
2016-10-21T04:59:23.262Z,99.92
2016-10-21T05:00:22.979Z,99.92
2016-10-21T05:01:23.297Z,99.99
2016-10-21T05:02:23.309Z,99.92
2016-10-21T05:03:23.342Z,99.83
2016-10-21T05:04:23.373Z,99.92
2016-10-21T05:05:23.372Z,99.99
2016-10-21T05:06:23.386Z,99.83
2016-10-21T05:07:23.407Z,99.99
2016-10-21T05:08:23.468Z,99.99
2016-10-21T05:09:23.437Z,99.73
2016-10-21T05:10:23.150Z,99.73
2016-10-21T05:11:23.471Z,99.64
2016-10-21T05:12:23.479Z,99.35
2016-10-21T05:13:23.499Z,99.83
2016-10-21T05:14:23.517Z,99.83
2016-10-21T05:15:23.540Z,99.92
2016-10-21T05:16:23.545Z,99.83
2016-10-21T05:17:23.567Z,99.83
2016-10-21T05:18:23.586Z,99.44
2016-10-21T05:19:23.609Z,99.73
2016-10-21T05:20:23.639Z,99.54
2016-10-21T05:21:23.641Z,99.83
2016-10-21T05:22:23.666Z,99.64
2016-10-21T05:23:23.677Z,99.73
2016-10-21T05:24:23.372Z,99.83
2016-10-21T05:25:23.717Z,99.64
2016-10-21T05:26:23.728Z,99.78
2016-10-21T05:27:23.742Z,99.64
2016-10-21T05:28:23.748Z,99.92
2016-10-21T05:29:23.780Z,99.54
2016-10-21T05:30:23.809Z,99.92
2016-10-21T05:31:23.498Z,99.64
2016-10-21T05:32:23.829Z,99.64
2016-10-21T05:33:23.529Z,99.54
2016-10-21T05:34:24.259Z,99.73
2016-10-21T05:35:24.118Z,99.83
2016-10-21T05:36:24.247Z,99.83
2016-10-21T05:37:24.115Z,99.83
2016-10-21T05:38:24.290Z,99.44
2016-10-21T05:39:23.640Z,99.4
2016-10-21T05:40:24.240Z,99.5
2016-10-21T05:41:24.126Z,99.59
2016-10-21T05:42:24.147Z,99.88
2016-10-21T05:43:24.160Z,99.59
2016-10-21T05:44:24.174Z,99.88
2016-10-21T05:45:23.747Z,99.59
2016-10-21T05:46:24.171Z,99.97
2016-10-21T05:47:23.766Z,99.97
2016-10-21T05:48:23.787Z,99.97
2016-10-21T05:49:24.395Z,99.4
2016-10-21T05:50:24.215Z,99.97
2016-10-21T05:51:24.341Z,99.88
2016-10-21T05:52:24.218Z,99.88
2016-10-21T05:53:23.866Z,99.4
2016-10-21T05:54:24.200Z,99.59
2016-10-21T05:55:24.505Z,99.69
2016-10-21T05:56:23.917Z,99.97
2016-10-21T05:57:23.934Z,99.78
2016-10-21T05:58:23.969Z,99.97
2016-10-21T05:59:23.986Z,99.78
2016-10-21T06:00:23.989Z,99.78
2016-10-21T06:01:24.008Z,99.88
2016-10-21T06:02:24.031Z,99.99
2016-10-21T06:03:24.466Z,99.97
2016-10-21T06:04:24.664Z,99.88
2016-10-21T06:05:24.449Z,99.5
2016-10-21T06:06:24.650Z,99.5
2016-10-21T06:07:24.468Z,99.69
2016-10-21T06:08:24.132Z,99.59
2016-10-21T06:09:24.135Z,99.69
2016-10-21T06:10:24.672Z,99.97
2016-10-21T06:11:24.530Z,99.99
2016-10-21T06:12:24.695Z,99.78
2016-10-21T06:13:24.514Z,99.99
2016-10-21T06:14:24.686Z,99.99
2016-10-21T06:15:24.556Z,99.99
2016-10-21T06:16:24.733Z,99.99
2016-10-21T06:17:24.601Z,99.99
2016-10-21T06:18:24.618Z,99.99
2016-10-21T06:19:24.470Z,99.97
2016-10-21T06:20:24.650Z,99.99
2016-10-21T06:21:24.659Z,99.99
2016-10-21T06:22:24.676Z,99.99
2016-10-21T06:23:24.697Z,99.99
2016-10-21T06:24:24.708Z,99.99
2016-10-21T06:25:24.729Z,99.99
2016-10-21T06:26:24.761Z,99.99
2016-10-21T06:27:24.819Z,99.99
2016-10-21T06:28:24.777Z,99.99
2016-10-21T06:29:24.806Z,99.99
2016-10-21T06:30:24.819Z,99.99
2016-10-21T06:31:24.838Z,99.99
2016-10-21T06:32:24.867Z,99.99
2016-10-21T06:33:25.048Z,99.99
2016-10-21T06:34:24.881Z,99.99
2016-10-21T06:35:25.020Z,99.99
2016-10-21T06:36:24.920Z,99.99
2016-10-21T06:37:24.939Z,99.99
2016-10-21T06:38:24.953Z,99.99
2016-10-21T06:39:24.969Z,99.99
2016-10-21T06:40:24.990Z,99.99
2016-10-21T06:41:24.995Z,99.99
2016-10-21T06:42:25.030Z,99.99
2016-10-21T06:43:25.036Z,99.99
2016-10-21T06:44:24.865Z,99.99
2016-10-21T06:45:25.066Z,99.99
2016-10-21T06:46:25.129Z,99.99
2016-10-21T06:47:25.111Z,99.99
2016-10-21T06:48:25.221Z,99.99
2016-10-21T06:49:25.146Z,99.99
2016-10-21T06:50:25.158Z,99.99
2016-10-21T06:51:25.178Z,99.99
2016-10-21T06:52:25.187Z,99.99
2016-10-21T06:53:25.208Z,99.99
2016-10-21T06:54:25.229Z,99.99
2016-10-21T06:55:25.251Z,99.99
2016-10-21T06:56:25.261Z,99.99
2016-10-21T06:57:25.273Z,99.99
2016-10-21T06:58:25.296Z,99.99
2016-10-21T06:59:25.320Z,99.99
2016-10-21T07:00:25.328Z,99.99
2016-10-21T07:01:25.088Z,99.99
2016-10-21T07:02:25.409Z,99.99
2016-10-21T07:03:25.389Z,99.99
2016-10-21T07:04:25.401Z,99.99
2016-10-21T07:05:25.421Z,99.99
2016-10-21T07:06:25.427Z,99.99
2016-10-21T07:07:25.442Z,99.99
2016-10-21T07:08:25.470Z,99.99
2016-10-21T07:09:25.480Z,99.99
2016-10-21T07:10:25.498Z,99.99
2016-10-21T07:11:25.519Z,99.99
2016-10-21T07:12:25.541Z,99.99
2016-10-21T07:13:25.556Z,99.99
2016-10-21T07:14:25.581Z,99.99
2016-10-21T07:15:25.597Z,99.99
2016-10-21T07:16:25.611Z,99.99
2016-10-21T07:17:25.669Z,99.99
2016-10-21T07:18:25.632Z,99.99
2016-10-21T07:19:25.349Z,99.99
2016-10-21T07:20:25.675Z,99.99
2016-10-21T07:21:25.691Z,99.99
2016-10-21T07:22:25.712Z,99.99
2016-10-21T07:23:25.729Z,99.99
2016-10-21T07:24:25.756Z,99.99
2016-10-21T07:25:25.758Z,99.99
2016-10-21T07:26:25.779Z,99.99
2016-10-21T07:27:25.798Z,99.99
2016-10-21T07:28:25.814Z,99.99
2016-10-21T07:29:25.846Z,99.99
2016-10-21T07:30:25.846Z,99.99
2016-10-21T07:31:25.865Z,99.99
2016-10-21T07:32:25.886Z,99.99
2016-10-21T07:33:25.915Z,99.99
2016-10-21T07:34:25.926Z,99.99
2016-10-21T07:35:25.936Z,99.99
2016-10-21T07:36:25.958Z,99.99
2016-10-21T07:37:25.996Z,99.99
2016-10-21T07:38:25.999Z,99.99
2016-10-21T07:39:26.024Z,99.99
2016-10-21T07:40:26.028Z,99.99
2016-10-21T07:41:25.754Z,99.99
2016-10-21T07:42:26.059Z,99.99
2016-10-21T07:43:26.081Z,99.99
2016-10-21T07:44:26.097Z,99.99
2016-10-21T07:45:26.129Z,99.99
2016-10-21T07:46:26.134Z,99.99
2016-10-21T07:47:26.147Z,99.99
2016-10-21T07:48:26.164Z,99.99
2016-10-21T07:49:26.224Z,99.99
2016-10-21T07:50:26.316Z,99.99
2016-10-21T07:51:26.259Z,99.99
2016-10-21T07:52:25.933Z,99.99
2016-10-21T07:53:26.263Z,99.99
2016-10-21T07:54:25.958Z,99.99
2016-10-21T07:55:26.298Z,99.99
2016-10-21T07:56:26.358Z,99.99
2016-10-21T07:57:26.324Z,99.99
2016-10-21T07:58:26.344Z,99.99
2016-10-21T07:59:26.364Z,99.99
2016-10-21T08:00:26.381Z,99.99
2016-10-21T08:01:26.393Z,99.99
2016-10-21T08:02:26.118Z,99.99
2016-10-21T08:03:26.507Z,99.99
2016-10-21T08:04:26.462Z,99.99
2016-10-21T08:05:26.166Z,99.99
2016-10-21T08:06:26.499Z,99.99
2016-10-21T08:07:26.646Z,99.99
2016-10-21T08:08:26.219Z,99.99
2016-10-21T08:09:26.548Z,99.99
2016-10-21T08:10:26.571Z,99.99
2016-10-21T08:11:26.598Z,99.99
2016-10-21T08:12:26.609Z,99.99
2016-10-21T08:13:26.614Z,99.99
2016-10-21T08:14:26.638Z,99.99
2016-10-21T08:15:26.667Z,99.99
2016-10-21T08:16:26.363Z,99.99
2016-10-21T08:17:26.826Z,99.99
2016-10-21T08:18:26.722Z,99.99
2016-10-21T08:19:26.434Z,99.99
2016-10-21T08:20:26.758Z,99.99
2016-10-21T08:21:26.453Z,99.99
2016-10-21T08:22:26.785Z,99.99
2016-10-21T08:23:26.806Z,99.99
2016-10-21T08:24:26.824Z,99.99
2016-10-21T08:25:26.848Z,99.99
2016-10-21T08:26:26.863Z,99.99
2016-10-21T08:27:26.575Z,99.99
2016-10-21T08:28:26.952Z,99.99
2016-10-21T08:29:26.916Z,99.99
2016-10-21T08:30:27.037Z,99.99
2016-10-21T08:31:26.995Z,99.99
2016-10-21T08:32:26.716Z,99.99
2016-10-21T08:33:26.687Z,99.99
2016-10-21T08:34:27.001Z,99.99
2016-10-21T08:35:26.727Z,99.99
2016-10-21T08:36:27.047Z,99.99
2016-10-21T08:37:27.066Z,99.99
2016-10-21T08:38:27.131Z,99.99
2016-10-21T08:39:26.796Z,99.99
2016-10-21T08:40:27.132Z,99.99
2016-10-21T08:41:27.285Z,99.99
2016-10-21T08:42:27.165Z,99.99
2016-10-21T08:43:27.269Z,99.99
2016-10-21T08:44:26.885Z,99.99
2016-10-21T08:45:27.266Z,99.99
2016-10-21T08:46:27.245Z,99.99
2016-10-21T08:47:27.294Z,99.99
2016-10-21T08:48:26.967Z,99.99
2016-10-21T08:49:27.294Z,99.99
2016-10-21T08:50:27.322Z,99.99
2016-10-21T08:51:27.340Z,99.99
2016-10-21T08:52:27.047Z,99.99
2016-10-21T08:53:27.380Z,99.99
2016-10-21T08:54:27.407Z,99.99
2016-10-21T08:55:27.413Z,99.99
2016-10-21T08:56:27.437Z,99.99
2016-10-21T08:57:27.455Z,99.99
2016-10-21T08:58:27.466Z,99.99
2016-10-21T08:59:27.181Z,99.99
2016-10-21T09:00:27.508Z,99.99
2016-10-21T09:01:27.524Z,99.99
2016-10-21T09:02:27.541Z,99.99
2016-10-21T09:03:27.552Z,99.99
2016-10-21T09:04:27.581Z,99.99
2016-10-21T09:05:27.304Z,99.99
2016-10-21T09:06:27.615Z,99.99
2016-10-21T09:07:27.637Z,99.99
2016-10-21T09:08:27.703Z,99.99
2016-10-21T09:09:27.673Z,99.99
2016-10-21T09:10:27.695Z,99.99
2016-10-21T09:11:27.704Z,99.99
2016-10-21T09:12:27.735Z,99.99
2016-10-21T09:13:27.748Z,99.99
2016-10-21T09:14:27.780Z,99.99
2016-10-21T09:15:27.796Z,99.99
2016-10-21T09:16:27.816Z,99.99
2016-10-21T09:17:27.835Z,99.99
2016-10-21T09:18:27.855Z,99.99
2016-10-21T09:19:27.875Z,99.99
2016-10-21T09:20:27.890Z,99.99
2016-10-21T09:21:27.908Z,99.99
2016-10-21T09:22:27.926Z,99.99
2016-10-21T09:23:27.949Z,99.99
2016-10-21T09:24:27.969Z,99.99
2016-10-21T09:25:27.983Z,99.99
2016-10-21T09:26:28.004Z,99.99
2016-10-21T09:27:28.036Z,99.99
2016-10-21T09:28:28.044Z,99.99
2016-10-21T09:29:27.757Z,99.99
2016-10-21T09:30:28.017Z,99.99
2016-10-21T09:31:27.800Z,99.99
2016-10-21T09:32:29.140Z,99.99
2016-10-21T09:33:28.397Z,99.99
2016-10-21T09:34:28.814Z,99.99
2016-10-21T09:35:28.384Z,99.99
2016-10-21T09:36:28.407Z,99.99
2016-10-21T09:37:28.055Z,99.99
2016-10-21T09:38:28.392Z,99.99
2016-10-21T09:39:28.405Z,99.99
2016-10-21T09:40:28.424Z,99.99
2016-10-21T09:41:28.437Z,99.99
2016-10-21T09:42:28.095Z,99.99
2016-10-21T09:43:28.389Z,99.99
2016-10-21T09:44:28.473Z,99.99
2016-10-21T09:45:28.422Z,99.99
2016-10-21T09:46:28.395Z,99.99
2016-10-21T09:47:28.417Z,99.99
2016-10-21T09:48:28.175Z,99.99
2016-10-21T09:49:28.525Z,99.99
2016-10-21T09:50:28.514Z,99.99
2016-10-21T09:51:28.207Z,99.99
2016-10-21T09:52:28.517Z,99.99
2016-10-21T09:53:28.527Z,99.99
2016-10-21T09:54:28.547Z,99.99
2016-10-21T09:55:28.567Z,99.99
2016-10-21T09:56:28.599Z,99.99
2016-10-21T09:57:28.970Z,99.99
2016-10-21T09:58:28.625Z,99.99
2016-10-21T09:59:28.708Z,99.99
2016-10-21T10:00:28.689Z,99.99
2016-10-21T10:01:28.687Z,99.99
2016-10-21T10:02:29.408Z,99.99
2016-10-21T10:03:28.417Z,99.99
2016-10-21T10:04:28.747Z,99.99
2016-10-21T10:05:28.758Z,99.99
2016-10-21T10:06:28.789Z,99.99
2016-10-21T10:07:28.507Z,99.99
2016-10-21T10:08:28.825Z,99.99
2016-10-21T10:09:28.854Z,99.99
2016-10-21T10:10:29.017Z,99.99
2016-10-21T10:11:28.887Z,99.99
2016-10-21T10:12:28.678Z,99.99
2016-10-21T10:13:29.140Z,99.99
2016-10-21T10:14:28.679Z,99.99
2016-10-21T10:15:29.028Z,99.99
2016-10-21T10:16:28.977Z,99.99
2016-10-21T10:17:29.027Z,99.99
2016-10-21T10:18:29.267Z,99.99
2016-10-21T10:19:29.065Z,99.99
2016-10-21T10:20:29.067Z,99.99
2016-10-21T10:21:29.086Z,99.99
2016-10-21T10:22:29.097Z,99.99
2016-10-21T10:23:28.857Z,99.99
2016-10-21T10:24:29.145Z,99.99
2016-10-21T10:25:28.907Z,99.99
2016-10-21T10:26:29.174Z,99.99
2016-10-21T10:27:29.211Z,99.99
2016-10-21T10:28:29.227Z,99.99
2016-10-21T10:29:29.228Z,99.99
2016-10-21T10:30:29.246Z,99.99
2016-10-21T10:31:28.955Z,99.99
2016-10-21T10:32:29.025Z,99.99
2016-10-21T10:33:29.307Z,99.99
2016-10-21T10:34:29.019Z,99.99
2016-10-21T10:35:29.349Z,99.99
2016-10-21T10:36:29.388Z,99.99
2016-10-21T10:37:29.068Z,99.99
2016-10-21T10:38:29.455Z,99.99
2016-10-21T10:39:29.427Z,99.99
2016-10-21T10:40:29.446Z,99.99
2016-10-21T10:41:29.465Z,99.99
2016-10-21T10:42:29.486Z,99.99
2016-10-21T10:43:29.511Z,99.99
2016-10-21T10:44:29.528Z,99.99
2016-10-21T10:45:29.545Z,99.99
2016-10-21T10:46:29.569Z,99.99
2016-10-21T10:47:29.579Z,99.99
2016-10-21T10:48:29.600Z,99.99
2016-10-21T10:49:29.617Z,99.99
2016-10-21T10:50:29.632Z,99.99
2016-10-21T10:51:29.655Z,99.99
2016-10-21T10:52:29.669Z,99.99
2016-10-21T10:53:29.695Z,99.99
2016-10-21T10:54:29.726Z,99.99
2016-10-21T10:55:29.735Z,99.99
2016-10-21T10:56:29.447Z,99.99
2016-10-21T10:57:29.796Z,99.99
2016-10-21T10:58:29.796Z,99.99
2016-10-21T10:59:29.496Z,99.99
2016-10-21T11:00:29.849Z,99.99
2016-10-21T11:01:29.857Z,99.99
2016-10-21T11:02:29.553Z,99.99
2016-10-21T11:03:29.889Z,99.99
2016-10-21T11:04:29.594Z,99.99
2016-10-21T11:05:29.934Z,99.99
2016-10-21T11:06:29.947Z,99.99
2016-10-21T11:07:29.966Z,99.99
2016-10-21T11:08:29.988Z,99.99
2016-10-21T11:09:30.008Z,99.99
2016-10-21T11:10:30.026Z,99.99
2016-10-21T11:11:30.044Z,99.99
2016-10-21T11:12:30.066Z,99.99
2016-10-21T11:13:30.097Z,99.99
2016-10-21T11:15:30.166Z,99.99
2016-10-21T11:16:30.284Z,99.99
2016-10-21T11:17:29.846Z,99.99
2016-10-21T11:18:30.174Z,99.99
2016-10-21T11:19:29.889Z,99.99
2016-10-21T11:20:30.216Z,99.99
2016-10-21T11:21:29.927Z,99.99
2016-10-21T11:22:29.948Z,99.99
2016-10-21T11:23:29.969Z,99.99
2016-10-21T11:24:30.296Z,99.99
2016-10-21T11:25:30.316Z,99.99
2016-10-21T11:26:30.370Z,99.99
2016-10-21T11:27:30.369Z,99.99
2016-10-21T11:28:30.370Z,99.99
2016-10-21T11:29:30.402Z,99.99
2016-10-21T11:30:30.098Z,99.99
2016-10-21T11:31:30.432Z,99.99
2016-10-21T11:32:30.448Z,99.99
2016-10-21T11:33:30.520Z,99.99
2016-10-21T11:34:30.484Z,99.99
2016-10-21T11:35:30.504Z,99.99
2016-10-21T11:36:30.531Z,99.99
2016-10-21T11:37:30.250Z,99.99
2016-10-21T11:38:30.573Z,99.99
2016-10-21T11:39:30.700Z,99.99
2016-10-21T11:40:30.292Z,99.99
2016-10-21T11:41:30.469Z,99.99
2016-10-21T11:42:30.692Z,99.99
2016-10-21T11:43:30.687Z,99.99
2016-10-21T11:44:30.375Z,99.99
2016-10-21T11:45:30.716Z,99.99
2016-10-21T11:46:30.724Z,99.99
2016-10-21T11:47:30.741Z,99.99
2016-10-21T11:48:30.765Z,99.99
2016-10-21T11:49:30.793Z,99.99
2016-10-21T11:50:30.805Z,99.99
2016-10-21T11:51:30.961Z,99.99
2016-10-21T11:52:30.984Z,99.99
2016-10-21T11:53:30.610Z,99.99
2016-10-21T11:54:30.673Z,99.99
2016-10-21T11:55:30.897Z,99.99
2016-10-21T11:56:30.929Z,99.99
2016-10-21T11:57:30.934Z,99.99
2016-10-21T11:58:30.948Z,99.99
2016-10-21T11:59:30.981Z,99.99
2016-10-21T12:00:31.009Z,99.99
2016-10-21T12:01:31.028Z,99.99
2016-10-21T12:02:31.046Z,99.99
2016-10-21T12:03:31.059Z,99.99
2016-10-21T12:04:31.099Z,99.99
2016-10-21T12:05:31.102Z,99.99
2016-10-21T12:06:31.109Z,99.99
2016-10-21T12:07:31.197Z,99.99
2016-10-21T12:08:31.161Z,99.99
2016-10-21T12:09:31.176Z,99.99
2016-10-21T12:10:31.182Z,99.99
2016-10-21T12:11:31.207Z,99.99
2016-10-21T12:12:31.227Z,99.99
2016-10-21T12:13:31.263Z,99.99
2016-10-21T12:14:31.278Z,99.99
2016-10-21T12:15:31.285Z,99.99
2016-10-21T12:16:31.307Z,99.99
2016-10-21T12:17:31.319Z,99.99
2016-10-21T12:18:31.130Z,99.99
2016-10-21T12:19:31.368Z,99.99
2016-10-21T12:20:31.438Z,99.99
2016-10-21T12:21:31.092Z,99.99
2016-10-21T12:22:31.110Z,99.99
2016-10-21T12:23:31.432Z,99.99
2016-10-21T12:24:31.157Z,99.99
2016-10-21T12:25:31.178Z,99.99
2016-10-21T12:26:31.500Z,99.99
2016-10-21T12:27:31.525Z,99.99
2016-10-21T12:28:31.540Z,99.99
2016-10-21T12:29:31.555Z,99.99
2016-10-21T12:30:31.574Z,99.99
2016-10-21T12:31:31.582Z,99.99
2016-10-21T12:32:31.617Z,99.99
2016-10-21T12:33:31.662Z,99.99
2016-10-21T12:34:31.649Z,99.99
2016-10-21T12:35:31.369Z,99.99
2016-10-21T12:36:31.702Z,99.99
2016-10-21T12:37:31.708Z,99.99
2016-10-21T12:38:31.739Z,99.99
2016-10-21T12:39:31.750Z,99.99
2016-10-21T12:40:31.771Z,99.99
2016-10-21T12:41:31.800Z,99.99
2016-10-21T12:42:31.500Z,99.99
2016-10-21T12:43:31.832Z,99.99
2016-10-21T12:44:31.849Z,99.99
2016-10-21T12:45:31.861Z,99.99
2016-10-21T12:46:31.560Z,99.99
2016-10-21T12:47:31.901Z,99.99
2016-10-21T12:48:31.927Z,99.99
2016-10-21T12:49:31.939Z,99.99
2016-10-21T12:50:31.663Z,99.99
2016-10-21T12:51:31.977Z,99.99
2016-10-21T12:52:31.999Z,99.99
2016-10-21T12:53:32.020Z,99.99
2016-10-21T12:54:32.045Z,99.99